• Join FlightAware (Why Join?)
  • Login
  • US Flag 
02:05AM EDT


 

Airport Tracker/Info


-or-


 

Live Flight TrackerFlight Track Log ✈ ASQ5678 ✈ 12-Aug-2013 ✈ KLIT - KIAH

Flight Track Log - Related Links

Times and Time Zones

All times are in EDT time to prevent confusion due to time zone crossing. See the ASQ5678 flight status page for this flight to view local times or setup timezone preferences in your user account.

Time Position Orientation Groundspeed Altitude Reporting Facility
EDT Latitude Longitude Course Direction KTS MPH feet Rate Location/Type
08:19AM 34.7133 -92.2519 174° South 161 185 1,000  Level Memphis Center
08:20AM 34.6469 -92.2428 174° South 244 281 3,300 2,040 Climbing Memphis Center
08:21AM 34.5700 -92.2261 170° South 265 305 5,800 2,280 Climbing Memphis Center
08:22AM 34.4969 -92.2169 174° South 271 312 8,100 2,220 Climbing Memphis Center
08:23AM 34.4197 -92.2303 188° South 277 319 10,200 1,380 Climbing Memphis Center
08:24AM 34.3317 -92.2461 188° South 288 331 10,900 840 Climbing Memphis Center
08:25AM 34.2314 -92.2639 188° South 336 387 11,900 1,080 Climbing Memphis Center
08:26AM 34.1308 -92.2844 190° South 363 418 13,100 1,080 Climbing Memphis Center
08:27AM 34.0344 -92.3047 190° South 382 440 14,100 900 Climbing Memphis Center
08:29AM 33.8267 -92.3406 188° South 393 452 15,700 840 Climbing Fort Worth Center
08:30AM 33.7169 -92.3619 189° South 404 465 16,600 900 Climbing Fort Worth Center
08:31AM 33.6075 -92.3883 191° South 410 472 17,500 660 Climbing Fort Worth Center
08:32AM 33.5033 -92.4489 206° Southwest 410 472 18,000 240 Climbing Fort Worth Center
08:33AM 33.3994 -92.5094 206° Southwest 410 472 18,000  Level Fort Worth Center
08:34AM 33.3017 -92.5722 208° Southwest 415 478 18,000  Level Fort Worth Center
08:35AM 33.1975 -92.6325 206° Southwest 415 478 18,000  Level Fort Worth Center
08:36AM 33.0956 -92.6950 207° Southwest 420 483 18,000  Level Fort Worth Center
08:37AM 32.9914 -92.7550 206° Southwest 420 483 18,000  Level Fort Worth Center
08:38AM 32.8892 -92.8147 206° Southwest 420 483 18,000  Level Fort Worth Center
08:39AM 32.7808 -92.8769 206° Southwest 420 483 18,000  Level Fort Worth Center
08:40AM 32.6747 -92.9417 207° Southwest 426 490 18,000  Level Fort Worth Center
08:41AM 32.5722 -93.0008 206° Southwest 434 499 18,000  Level Fort Worth Center
08:42AM 32.4683 -93.0675 208° Southwest 429 494 18,000  Level Fort Worth Center
08:43AM 32.3639 -93.1267 206° Southwest 418 481 18,000  Level Fort Worth Center
08:44AM 32.2594 -93.1881 206° Southwest 424 488 18,000  Level Fort Worth Center
08:45AM 32.1572 -93.2492 207° Southwest 418 481 18,000  Level Fort Worth Center
08:46AM 32.0525 -93.3103 206° Southwest 423 487 18,000  Level Fort Worth Center
08:47AM 31.9481 -93.3714 206° Southwest 418 481 18,000  Level Fort Worth Center
08:48AM 31.8153 -93.4453 205° Southwest 418 481 18,000  Level Houston Center
08:49AM 31.7128 -93.5042 206° Southwest 414 476 18,000  Level Houston Center
08:50AM 31.5886 -93.5758 206° Southwest 416 479 18,000  Level Houston Center
08:51AM 31.4950 -93.6292 206° Southwest 420 483 18,000  Level Houston Center
08:52AM 31.3681 -93.7011 206° Southwest 421 484 18,000  Level Houston Center
08:53AM 31.2622 -93.7617 206° Southwest 421 484 18,000  Level Houston Center
08:54AM 31.1703 -93.8142 206° Southwest 420 483 18,000  Level Houston Center
08:55AM 31.0442 -93.8853 206° Southwest 421 484 18,000  Level Houston Center
08:56AM 30.9403 -93.9450 206° Southwest 420 483 18,000  Level Houston Center
08:57AM 30.8356 -94.0042 206° Southwest 419 482 18,000  Level Houston Center
08:58AM 30.7317 -94.0631 206° Southwest 418 481 18,000 -180 Level Houston Center
08:59AM 30.6278 -94.1217 206° Southwest 418 481 17,700 -720 Descending Houston Center
09:00AM 30.5247 -94.1800 206° Southwest 415 478 16,600 -1,260 Descending Houston Center
09:01AM 30.4292 -94.2347 206° Southwest 400 460 15,500 -1,320 Descending Houston Center
09:02AM 30.3106 -94.3058 207° Southwest 394 453 13,900 -1,380 Descending Houston Center
09:03AM 30.2578 -94.3931 235° Southwest 388 447 12,700 -1,560 Descending Houston Center
09:04AM 30.2050 -94.4967 240° Southwest 375 432 11,200 -1,320 Descending Houston Center
09:05AM 30.1519 -94.6003 239° Southwest 364 419 10,000 -600 Descending Houston Center
09:06AM 30.1081 -94.6881 240° Southwest 298 343 10,000 -480 Level Houston Center
09:07AM 30.0831 -94.7783 252° West 273 314 9,100 -1,020 Descending Houston Center
09:08AM 30.0661 -94.8650 257° West 278 320 8,000 -1,200 Descending Houston Center
09:09AM 30.0489 -94.9492 257° West 265 305 6,700 -1,500 Descending Houston Center
09:10AM 30.0311 -95.0286 256° West 260 299 5,000 -1,740 Descending Houston Center
09:11AM 30.0119 -95.1156 256° West 256 295 3,200 -1,500 Descending Houston Center
09:12AM 29.9997 -95.1869 259° West 221 254 2,000 -900 Descending Houston Center
09:13AM 29.9922 -95.2408 261° West 153 176 1,500 -600 Descending Houston Center
09:14AM 29.9922 -95.2867 270° West 132 152 800 -720 Descending Houston Center